sensor_id;sensor_type;location;lat;lon;timestamp;temperature;humidity
22676;DHT22;12521;43.310;21.876;2023-07-29T00:00:12;21.0;96.0
22676;DHT22;12521;43.310;21.876;2023-07-29T00:04:49;21.0;96.0
22676;DHT22;12521;43.310;21.876;2023-07-29T00:09:25;21.0;96.0
22676;DHT22;12521;43.310;21.876;2023-07-29T00:14:02;21.0;96.0
22676;DHT22;12521;43.310;21.876;2023-07-29T00:18:39;20.9;96.0
22676;DHT22;12521;43.310;21.876;2023-07-29T00:23:18;20.9;96.0
22676;DHT22;12521;43.310;21.876;2023-07-29T00:27:56;20.8;96.0
22676;DHT22;12521;43.310;21.876;2023-07-29T00:32:36;20.8;96.0
22676;DHT22;12521;43.310;21.876;2023-07-29T00:37:12;20.6;96.0
22676;DHT22;12521;43.310;21.876;2023-07-29T00:41:49;20.6;96.0
22676;DHT22;12521;43.310;21.876;2023-07-29T00:46:29;20.2;96.0
22676;DHT22;12521;43.310;21.876;2023-07-29T00:51:05;20.2;96.0
22676;DHT22;12521;43.310;21.876;2023-07-29T00:55:44;19.9;96.0
22676;DHT22;12521;43.310;21.876;2023-07-29T01:00:22;19.9;96.0
22676;DHT22;12521;43.310;21.876;2023-07-29T01:05:02;19.9;96.0
22676;DHT22;12521;43.310;21.876;2023-07-29T01:10:03;19.7;96.0
22676;DHT22;12521;43.310;21.876;2023-07-29T01:15:28;19.5;96.0
22676;DHT22;12521;43.310;21.876;2023-07-29T01:20:19;19.5;96.0
22676;DHT22;12521;43.310;21.876;2023-07-29T01:24:59;19.5;96.0
22676;DHT22;12521;43.310;21.876;2023-07-29T01:29:36;19.6;96.0
22676;DHT22;12521;43.310;21.876;2023-07-29T01:34:37;19.6;96.0
22676;DHT22;12521;43.310;21.876;2023-07-29T01:39:34;19.7;96.0
22676;DHT22;12521;43.310;21.876;2023-07-29T01:44:19;19.7;96.0
22676;DHT22;12521;43.310;21.876;2023-07-29T01:48:57;19.8;96.0
22676;DHT22;12521;43.310;21.876;2023-07-29T01:53:34;19.8;96.0
22676;DHT22;12521;43.310;21.876;2023-07-29T01:58:11;19.8;96.0
22676;DHT22;12521;43.310;21.876;2023-07-29T02:02:48;19.8;96.0
22676;DHT22;12521;43.310;21.876;2023-07-29T02:07:24;19.8;96.0
22676;DHT22;12521;43.310;21.876;2023-07-29T02:12:01;19.8;96.0
22676;DHT22;12521;43.310;21.876;2023-07-29T02:16:39;19.7;96.0
22676;DHT22;12521;43.310;21.876;2023-07-29T02:21:16;19.7;96.0
22676;DHT22;12521;43.310;21.876;2023-07-29T02:25:53;19.6;96.0
22676;DHT22;12521;43.310;21.876;2023-07-29T02:30:30;19.6;96.0
22676;DHT22;12521;43.310;21.876;2023-07-29T02:35:08;19.6;96.0
22676;DHT22;12521;43.310;21.876;2023-07-29T02:39:45;19.6;96.0
22676;DHT22;12521;43.310;21.876;2023-07-29T02:44:21;19.6;96.0
22676;DHT22;12521;43.310;21.876;2023-07-29T02:48:57;19.5;96.0
22676;DHT22;12521;43.310;21.876;2023-07-29T02:53:34;19.5;96.0
22676;DHT22;12521;43.310;21.876;2023-07-29T02:58:10;19.4;96.0
22676;DHT22;12521;43.310;21.876;2023-07-29T03:02:46;19.4;96.0
22676;DHT22;12521;43.310;21.876;2023-07-29T03:07:22;19.3;96.0
22676;DHT22;12521;43.310;21.876;2023-07-29T03:11:59;19.3;96.0
22676;DHT22;12521;43.310;21.876;2023-07-29T03:16:35;19.2;96.0
22676;DHT22;12521;43.310;21.876;2023-07-29T03:21:12;19.2;96.0
22676;DHT22;12521;43.310;21.876;2023-07-29T03:25:49;19.2;96.0
22676;DHT22;12521;43.310;21.876;2023-07-29T03:30:26;19.2;96.0
22676;DHT22;12521;43.310;21.876;2023-07-29T03:35:05;19.2;96.0
22676;DHT22;12521;43.310;21.876;2023-07-29T03:39:43;19.2;96.0
22676;DHT22;12521;43.310;21.876;2023-07-29T03:44:20;19.2;96.0
22676;DHT22;12521;43.310;21.876;2023-07-29T03:48:56;19.0;96.0
22676;DHT22;12521;43.310;21.876;2023-07-29T03:53:33;19.0;96.0
22676;DHT22;12521;43.310;21.876;2023-07-29T03:58:10;18.9;96.0
22676;DHT22;12521;43.310;21.876;2023-07-29T04:02:47;18.9;96.0
22676;DHT22;12521;43.310;21.876;2023-07-29T04:07:24;18.8;96.0
22676;DHT22;12521;43.310;21.876;2023-07-29T04:12:02;18.8;96.0
22676;DHT22;12521;43.310;21.876;2023-07-29T04:16:40;18.8;96.0
22676;DHT22;12521;43.310;21.876;2023-07-29T04:21:17;18.8;96.0
22676;DHT22;12521;43.310;21.876;2023-07-29T04:25:54;18.9;96.0
22676;DHT22;12521;43.310;21.876;2023-07-29T04:30:31;18.9;96.0
22676;DHT22;12521;43.310;21.876;2023-07-29T04:35:09;18.9;96.0
22676;DHT22;12521;43.310;21.876;2023-07-29T04:39:46;19.0;96.0
22676;DHT22;12521;43.310;21.876;2023-07-29T04:44:22;19.0;96.0
22676;DHT22;12521;43.310;21.876;2023-07-29T04:48:59;19.2;96.0
22676;DHT22;12521;43.310;21.876;2023-07-29T04:53:36;19.2;96.0
22676;DHT22;12521;43.310;21.876;2023-07-29T04:58:13;19.3;96.0
22676;DHT22;12521;43.310;21.876;2023-07-29T05:02:49;19.3;96.0
22676;DHT22;12521;43.310;21.876;2023-07-29T05:07:26;19.3;96.0
22676;DHT22;12521;43.310;21.876;2023-07-29T05:12:06;19.3;96.0
22676;DHT22;12521;43.310;21.876;2023-07-29T05:16:45;19.3;96.0
22676;DHT22;12521;43.310;21.876;2023-07-29T05:21:21;19.3;96.0
22676;DHT22;12521;43.310;21.876;2023-07-29T05:25:57;19.3;96.0
22676;DHT22;12521;43.310;21.876;2023-07-29T05:30:35;19.3;96.0
22676;DHT22;12521;43.310;21.876;2023-07-29T05:35:11;19.3;96.0
22676;DHT22;12521;43.310;21.876;2023-07-29T05:39:48;19.3;96.0
22676;DHT22;12521;43.310;21.876;2023-07-29T05:44:24;19.3;96.0
22676;DHT22;12521;43.310;21.876;2023-07-29T05:49:00;19.5;96.0
22676;DHT22;12521;43.310;21.876;2023-07-29T05:53:37;19.5;96.0
22676;DHT22;12521;43.310;21.876;2023-07-29T05:58:13;19.6;96.0
22676;DHT22;12521;43.310;21.876;2023-07-29T06:02:50;19.6;96.0
22676;DHT22;12521;43.310;21.876;2023-07-29T06:07:26;20.0;96.0
22676;DHT22;12521;43.310;21.876;2023-07-29T06:12:06;20.0;96.0
22676;DHT22;12521;43.310;21.876;2023-07-29T06:16:44;20.3;96.0
22676;DHT22;12521;43.310;21.876;2023-07-29T06:21:21;20.3;96.0
22676;DHT22;12521;43.310;21.876;2023-07-29T06:25:58;20.6;96.0
22676;DHT22;12521;43.310;21.876;2023-07-29T06:30:36;20.6;96.0
22676;DHT22;12521;43.310;21.876;2023-07-29T06:35:12;20.6;96.0
22676;DHT22;12521;43.310;21.876;2023-07-29T06:39:49;21.0;96.0
22676;DHT22;12521;43.310;21.876;2023-07-29T06:44:25;21.0;96.0
22676;DHT22;12521;43.310;21.876;2023-07-29T06:49:02;21.4;96.0
22676;DHT22;12521;43.310;21.876;2023-07-29T06:53:38;21.4;96.0
22676;DHT22;12521;43.310;21.876;2023-07-29T06:58:14;21.7;96.0
22676;DHT22;12521;43.310;21.876;2023-07-29T07:02:51;21.7;96.0
22676;DHT22;12521;43.310;21.876;2023-07-29T07:07:27;22.0;96.0
22676;DHT22;12521;43.310;21.876;2023-07-29T07:12:07;22.0;96.0
22676;DHT22;12521;43.310;21.876;2023-07-29T07:16:44;22.4;96.0
22676;DHT22;12521;43.310;21.876;2023-07-29T07:21:20;22.4;96.0
22676;DHT22;12521;43.310;21.876;2023-07-29T07:25:57;22.8;96.0
22676;DHT22;12521;43.310;21.876;2023-07-29T07:30:33;22.8;96.0
22676;DHT22;12521;43.310;21.876;2023-07-29T07:35:10;22.8;96.0
22676;DHT22;12521;43.310;21.876;2023-07-29T07:39:47;23.2;96.0
22676;DHT22;12521;43.310;21.876;2023-07-29T07:44:24;23.2;96.0
22676;DHT22;12521;43.310;21.876;2023-07-29T07:49:01;23.5;96.0
22676;DHT22;12521;43.310;21.876;2023-07-29T07:53:37;23.5;96.0
22676;DHT22;12521;43.310;21.876;2023-07-29T07:58:14;23.8;96.0
22676;DHT22;12521;43.310;21.876;2023-07-29T08:02:50;23.8;96.0
22676;DHT22;12521;43.310;21.876;2023-07-29T08:07:26;24.2;96.0
22676;DHT22;12521;43.310;21.876;2023-07-29T08:12:04;24.2;96.0
22676;DHT22;12521;43.310;21.876;2023-07-29T08:16:40;24.7;96.0
22676;DHT22;12521;43.310;21.876;2023-07-29T08:21:16;24.7;96.0
22676;DHT22;12521;43.310;21.876;2023-07-29T08:25:59;25.2;96.0
22676;DHT22;12521;43.310;21.876;2023-07-29T08:30:38;25.2;96.0
22676;DHT22;12521;43.310;21.876;2023-07-29T08:35:15;25.2;96.0
22676;DHT22;12521;43.310;21.876;2023-07-29T08:39:52;25.8;96.0
22676;DHT22;12521;43.310;21.876;2023-07-29T08:44:43;25.8;96.0
22676;DHT22;12521;43.310;21.876;2023-07-29T08:49:26;26.2;96.0
22676;DHT22;12521;43.310;21.876;2023-07-29T08:54:08;26.2;96.0
22676;DHT22;12521;43.310;21.876;2023-07-29T08:58:49;26.5;96.0
22676;DHT22;12521;43.310;21.876;2023-07-29T09:03:28;26.5;96.0
22676;DHT22;12521;43.310;21.876;2023-07-29T09:08:07;26.9;95.0
22676;DHT22;12521;43.310;21.876;2023-07-29T09:12:45;26.9;95.0
22676;DHT22;12521;43.310;21.876;2023-07-29T09:17:23;27.3;95.0
22676;DHT22;12521;43.310;21.876;2023-07-29T09:22:00;27.3;95.0
22676;DHT22;12521;43.310;21.876;2023-07-29T09:26:36;27.5;94.0
22676;DHT22;12521;43.310;21.876;2023-07-29T09:31:27;27.5;94.0
22676;DHT22;12521;43.310;21.876;2023-07-29T09:36:10;27.7;94.0
22676;DHT22;12521;43.310;21.876;2023-07-29T09:40:46;27.7;94.0
22676;DHT22;12521;43.310;21.876;2023-07-29T09:45:27;27.7;94.0
22676;DHT22;12521;43.310;21.876;2023-07-29T09:50:09;27.9;93.0
22676;DHT22;12521;43.310;21.876;2023-07-29T09:54:48;27.9;93.0
22676;DHT22;12521;43.310;21.876;2023-07-29T09:59:25;28.1;93.0
22676;DHT22;12521;43.310;21.876;2023-07-29T10:04:05;28.1;93.0
22676;DHT22;12521;43.310;21.876;2023-07-29T10:08:45;28.4;92.0
22676;DHT22;12521;43.310;21.876;2023-07-29T10:13:28;28.4;92.0
22676;DHT22;12521;43.310;21.876;2023-07-29T10:18:07;28.7;90.0
22676;DHT22;12521;43.310;21.876;2023-07-29T10:22:51;28.7;90.0
22676;DHT22;12521;43.310;21.876;2023-07-29T10:27:55;28.9;89.0
22676;DHT22;12521;43.310;21.876;2023-07-29T10:32:45;28.9;89.0
22676;DHT22;12521;43.310;21.876;2023-07-29T10:37:25;29.1;88.0
22676;DHT22;12521;43.310;21.876;2023-07-29T10:42:07;29.1;88.0
22676;DHT22;12521;43.310;21.876;2023-07-29T10:46:43;29.2;87.0
22676;DHT22;12521;43.310;21.876;2023-07-29T10:51:30;29.2;87.0
22676;DHT22;12521;43.310;21.876;2023-07-29T10:56:06;29.2;87.0
22676;DHT22;12521;43.310;21.876;2023-07-29T11:00:45;29.2;87.0
22676;DHT22;12521;43.310;21.876;2023-07-29T11:05:22;29.2;87.0
22676;DHT22;12521;43.310;21.876;2023-07-29T11:10:04;29.6;85.0
22676;DHT22;12521;43.310;21.876;2023-07-29T11:14:41;29.6;85.0
22676;DHT22;12521;43.310;21.876;2023-07-29T11:19:21;30.1;84.0
22676;DHT22;12521;43.310;21.876;2023-07-29T11:23:58;30.1;84.0
22676;DHT22;12521;43.310;21.876;2023-07-29T11:28:39;30.4;82.0
22676;DHT22;12521;43.310;21.876;2023-07-29T11:33:25;30.4;82.0
22676;DHT22;12521;43.310;21.876;2023-07-29T11:38:04;30.7;80.0
22676;DHT22;12521;43.310;21.876;2023-07-29T11:42:42;30.7;80.0
22676;DHT22;12521;43.310;21.876;2023-07-29T11:47:21;31.2;78.0
22676;DHT22;12521;43.310;21.876;2023-07-29T11:51:59;31.2;78.0
22676;DHT22;12521;43.310;21.876;2023-07-29T11:56:38;31.8;76.0
22676;DHT22;12521;43.310;21.876;2023-07-29T12:01:15;31.8;76.0
22676;DHT22;12521;43.310;21.876;2023-07-29T12:05:52;32.2;73.0
22676;DHT22;12521;43.310;21.876;2023-07-29T12:10:30;32.2;73.0
22676;DHT22;12521;43.310;21.876;2023-07-29T12:15:09;32.2;73.0
22676;DHT22;12521;43.310;21.876;2023-07-29T12:19:46;32.6;70.0
22676;DHT22;12521;43.310;21.876;2023-07-29T12:24:23;32.6;70.0
22676;DHT22;12521;43.310;21.876;2023-07-29T12:29:11;32.8;70.0
22676;DHT22;12521;43.310;21.876;2023-07-29T12:33:57;32.8;70.0
22676;DHT22;12521;43.310;21.876;2023-07-29T12:38:36;33.0;69.0
22676;DHT22;12521;43.310;21.876;2023-07-29T12:43:12;33.0;69.0
22676;DHT22;12521;43.310;21.876;2023-07-29T12:47:50;33.4;68.0
22676;DHT22;12521;43.310;21.876;2023-07-29T12:52:26;33.4;68.0
22676;DHT22;12521;43.310;21.876;2023-07-29T12:57:04;33.8;67.0
22676;DHT22;12521;43.310;21.876;2023-07-29T13:01:42;33.8;67.0
22676;DHT22;12521;43.310;21.876;2023-07-29T13:06:20;34.2;66.0
22676;DHT22;12521;43.310;21.876;2023-07-29T13:10:58;34.2;66.0
22676;DHT22;12521;43.310;21.876;2023-07-29T13:15:34;34.2;66.0
22676;DHT22;12521;43.310;21.876;2023-07-29T13:20:11;34.5;66.0
22676;DHT22;12521;43.310;21.876;2023-07-29T13:24:47;34.5;66.0
22676;DHT22;12521;43.310;21.876;2023-07-29T13:29:23;34.6;66.0
22676;DHT22;12521;43.310;21.876;2023-07-29T13:33:59;34.6;66.0
22676;DHT22;12521;43.310;21.876;2023-07-29T13:38:36;34.6;66.0
22676;DHT22;12521;43.310;21.876;2023-07-29T13:43:12;34.6;66.0
22676;DHT22;12521;43.310;21.876;2023-07-29T13:47:50;34.8;66.0
22676;DHT22;12521;43.310;21.876;2023-07-29T13:52:26;34.8;66.0
22676;DHT22;12521;43.310;21.876;2023-07-29T13:57:04;34.9;66.0
22676;DHT22;12521;43.310;21.876;2023-07-29T14:01:41;34.9;66.0
22676;DHT22;12521;43.310;21.876;2023-07-29T14:06:18;35.2;66.0
22676;DHT22;12521;43.310;21.876;2023-07-29T14:10:54;35.2;66.0
22676;DHT22;12521;43.310;21.876;2023-07-29T14:15:31;35.2;66.0
22676;DHT22;12521;43.310;21.876;2023-07-29T14:20:11;35.4;65.0
22676;DHT22;12521;43.310;21.876;2023-07-29T14:24:49;35.4;65.0
22676;DHT22;12521;43.310;21.876;2023-07-29T14:29:26;35.6;65.0
22676;DHT22;12521;43.310;21.876;2023-07-29T14:34:03;35.6;65.0
22676;DHT22;12521;43.310;21.876;2023-07-29T14:38:39;35.7;64.0
22676;DHT22;12521;43.310;21.876;2023-07-29T14:43:16;35.7;64.0
22676;DHT22;12521;43.310;21.876;2023-07-29T14:47:52;35.8;64.0
22676;DHT22;12521;43.310;21.876;2023-07-29T14:52:29;35.8;64.0
22676;DHT22;12521;43.310;21.876;2023-07-29T14:57:10;36.0;64.0
22676;DHT22;12521;43.310;21.876;2023-07-29T15:01:46;36.0;64.0
22676;DHT22;12521;43.310;21.876;2023-07-29T15:06:23;35.7;65.0
22676;DHT22;12521;43.310;21.876;2023-07-29T15:11:01;35.7;65.0
22676;DHT22;12521;43.310;21.876;2023-07-29T15:15:42;35.7;65.0
22676;DHT22;12521;43.310;21.876;2023-07-29T15:20:21;35.4;65.0
22676;DHT22;12521;43.310;21.876;2023-07-29T15:24:58;35.4;65.0
22676;DHT22;12521;43.310;21.876;2023-07-29T15:29:35;34.7;66.0
22676;DHT22;12521;43.310;21.876;2023-07-29T15:34:12;34.7;66.0
22676;DHT22;12521;43.310;21.876;2023-07-29T15:38:49;34.0;68.0
22676;DHT22;12521;43.310;21.876;2023-07-29T15:43:26;34.0;68.0
22676;DHT22;12521;43.310;21.876;2023-07-29T15:48:03;34.2;68.0
22676;DHT22;12521;43.310;21.876;2023-07-29T15:52:40;34.2;68.0
22676;DHT22;12521;43.310;21.876;2023-07-29T15:57:17;34.4;67.0
22676;DHT22;12521;43.310;21.876;2023-07-29T16:01:53;34.4;67.0
22676;DHT22;12521;43.310;21.876;2023-07-29T16:06:30;34.9;67.0
22676;DHT22;12521;43.310;21.876;2023-07-29T16:11:07;34.9;67.0
22676;DHT22;12521;43.310;21.876;2023-07-29T16:15:43;34.9;67.0
22676;DHT22;12521;43.310;21.876;2023-07-29T16:20:19;35.4;66.0
22676;DHT22;12521;43.310;21.876;2023-07-29T16:24:56;35.4;66.0
22676;DHT22;12521;43.310;21.876;2023-07-29T16:29:32;36.4;65.0
22676;DHT22;12521;43.310;21.876;2023-07-29T16:34:08;36.4;65.0
22676;DHT22;12521;43.310;21.876;2023-07-29T16:38:45;37.5;64.0
22676;DHT22;12521;43.310;21.876;2023-07-29T16:43:21;37.5;64.0
22676;DHT22;12521;43.310;21.876;2023-07-29T16:47:58;37.7;63.0
22676;DHT22;12521;43.310;21.876;2023-07-29T16:52:35;37.7;63.0
22676;DHT22;12521;43.310;21.876;2023-07-29T16:57:11;37.9;62.0
22676;DHT22;12521;43.310;21.876;2023-07-29T17:01:48;37.9;62.0
22676;DHT22;12521;43.310;21.876;2023-07-29T17:06:25;37.5;63.0
22676;DHT22;12521;43.310;21.876;2023-07-29T17:11:02;37.5;63.0
22676;DHT22;12521;43.310;21.876;2023-07-29T17:15:39;37.5;63.0
22676;DHT22;12521;43.310;21.876;2023-07-29T17:20:16;37.1;64.0
22676;DHT22;12521;43.310;21.876;2023-07-29T17:24:53;37.1;64.0
22676;DHT22;12521;43.310;21.876;2023-07-29T17:29:29;35.3;68.0
22676;DHT22;12521;43.310;21.876;2023-07-29T17:34:06;35.3;68.0
22676;DHT22;12521;43.310;21.876;2023-07-29T17:38:43;33.5;72.0
22676;DHT22;12521;43.310;21.876;2023-07-29T17:43:19;33.5;72.0
22676;DHT22;12521;43.310;21.876;2023-07-29T17:47:56;32.3;76.0
22676;DHT22;12521;43.310;21.876;2023-07-29T17:52:33;32.3;76.0
22676;DHT22;12521;43.310;21.876;2023-07-29T17:57:09;31.1;79.0
22676;DHT22;12521;43.310;21.876;2023-07-29T18:01:46;31.1;79.0
22676;DHT22;12521;43.310;21.876;2023-07-29T18:06:23;30.6;80.0
22676;DHT22;12521;43.310;21.876;2023-07-29T18:10:59;30.6;80.0
22676;DHT22;12521;43.310;21.876;2023-07-29T18:15:36;30.6;80.0
22676;DHT22;12521;43.310;21.876;2023-07-29T18:20:14;30.0;80.0
22676;DHT22;12521;43.310;21.876;2023-07-29T18:24:50;30.0;80.0
22676;DHT22;12521;43.310;21.876;2023-07-29T18:29:27;29.6;82.0
22676;DHT22;12521;43.310;21.876;2023-07-29T18:34:04;29.6;82.0
22676;DHT22;12521;43.310;21.876;2023-07-29T18:38:40;29.2;84.0
22676;DHT22;12521;43.310;21.876;2023-07-29T18:43:17;29.2;84.0
22676;DHT22;12521;43.310;21.876;2023-07-29T18:47:53;28.8;87.0
22676;DHT22;12521;43.310;21.876;2023-07-29T18:52:29;28.8;87.0
22676;DHT22;12521;43.310;21.876;2023-07-29T18:57:07;28.3;89.0
22676;DHT22;12521;43.310;21.876;2023-07-29T19:01:43;28.3;89.0
22676;DHT22;12521;43.310;21.876;2023-07-29T19:06:19;27.8;90.0
22676;DHT22;12521;43.310;21.876;2023-07-29T19:10:55;27.8;90.0
22676;DHT22;12521;43.310;21.876;2023-07-29T19:15:32;27.8;90.0
22676;DHT22;12521;43.310;21.876;2023-07-29T19:20:10;27.4;92.0
22676;DHT22;12521;43.310;21.876;2023-07-29T19:24:47;27.4;92.0
22676;DHT22;12521;43.310;21.876;2023-07-29T19:29:24;27.2;93.0
22676;DHT22;12521;43.310;21.876;2023-07-29T19:34:00;27.2;93.0
22676;DHT22;12521;43.310;21.876;2023-07-29T19:38:38;26.9;94.0
22676;DHT22;12521;43.310;21.876;2023-07-29T19:43:15;26.9;94.0
22676;DHT22;12521;43.310;21.876;2023-07-29T19:47:52;26.6;94.0
22676;DHT22;12521;43.310;21.876;2023-07-29T19:52:28;26.6;94.0
22676;DHT22;12521;43.310;21.876;2023-07-29T19:57:06;26.3;94.0
22676;DHT22;12521;43.310;21.876;2023-07-29T20:01:42;26.3;94.0
22676;DHT22;12521;43.310;21.876;2023-07-29T20:06:19;26.0;95.0
22676;DHT22;12521;43.310;21.876;2023-07-29T20:10:56;26.0;95.0
22676;DHT22;12521;43.310;21.876;2023-07-29T20:15:33;26.0;95.0
22676;DHT22;12521;43.310;21.876;2023-07-29T20:20:11;25.8;96.0
22676;DHT22;12521;43.310;21.876;2023-07-29T20:24:48;25.8;96.0
22676;DHT22;12521;43.310;21.876;2023-07-29T20:29:26;25.6;96.0
22676;DHT22;12521;43.310;21.876;2023-07-29T20:34:03;25.6;96.0
22676;DHT22;12521;43.310;21.876;2023-07-29T20:38:40;25.3;96.0
22676;DHT22;12521;43.310;21.876;2023-07-29T20:43:16;25.3;96.0
22676;DHT22;12521;43.310;21.876;2023-07-29T20:47:54;25.2;96.0
22676;DHT22;12521;43.310;21.876;2023-07-29T20:52:31;25.2;96.0
22676;DHT22;12521;43.310;21.876;2023-07-29T20:57:07;25.0;96.0
22676;DHT22;12521;43.310;21.876;2023-07-29T21:01:45;25.0;96.0
22676;DHT22;12521;43.310;21.876;2023-07-29T21:06:22;24.8;96.0
22676;DHT22;12521;43.310;21.876;2023-07-29T21:10:59;24.8;96.0
22676;DHT22;12521;43.310;21.876;2023-07-29T21:15:35;24.8;96.0
22676;DHT22;12521;43.310;21.876;2023-07-29T21:20:12;24.6;96.0
22676;DHT22;12521;43.310;21.876;2023-07-29T21:24:48;24.6;96.0
22676;DHT22;12521;43.310;21.876;2023-07-29T21:29:24;24.4;96.0
22676;DHT22;12521;43.310;21.876;2023-07-29T21:34:01;24.4;96.0
22676;DHT22;12521;43.310;21.876;2023-07-29T21:38:37;24.2;96.0
22676;DHT22;12521;43.310;21.876;2023-07-29T21:43:13;24.2;96.0
22676;DHT22;12521;43.310;21.876;2023-07-29T21:47:50;24.0;96.0
22676;DHT22;12521;43.310;21.876;2023-07-29T21:52:28;24.0;96.0
22676;DHT22;12521;43.310;21.876;2023-07-29T21:57:05;23.9;96.0
22676;DHT22;12521;43.310;21.876;2023-07-29T22:01:42;23.9;96.0
22676;DHT22;12521;43.310;21.876;2023-07-29T22:06:19;23.8;96.0
22676;DHT22;12521;43.310;21.876;2023-07-29T22:11:06;23.8;96.0
22676;DHT22;12521;43.310;21.876;2023-07-29T22:15:44;23.8;96.0
22676;DHT22;12521;43.310;21.876;2023-07-29T22:20:21;23.7;96.0
22676;DHT22;12521;43.310;21.876;2023-07-29T22:24:58;23.7;96.0
22676;DHT22;12521;43.310;21.876;2023-07-29T22:29:35;23.6;96.0
22676;DHT22;12521;43.310;21.876;2023-07-29T22:34:13;23.6;96.0
22676;DHT22;12521;43.310;21.876;2023-07-29T22:38:49;23.5;96.0
22676;DHT22;12521;43.310;21.876;2023-07-29T22:43:26;23.5;96.0
22676;DHT22;12521;43.310;21.876;2023-07-29T22:48:04;23.4;96.0
22676;DHT22;12521;43.310;21.876;2023-07-29T22:52:41;23.4;96.0
22676;DHT22;12521;43.310;21.876;2023-07-29T22:57:18;23.2;96.0
22676;DHT22;12521;43.310;21.876;2023-07-29T23:01:54;23.2;96.0
22676;DHT22;12521;43.310;21.876;2023-07-29T23:06:31;23.0;96.0
22676;DHT22;12521;43.310;21.876;2023-07-29T23:11:08;23.0;96.0
22676;DHT22;12521;43.310;21.876;2023-07-29T23:15:44;23.0;96.0
22676;DHT22;12521;43.310;21.876;2023-07-29T23:20:21;22.9;96.0
22676;DHT22;12521;43.310;21.876;2023-07-29T23:24:58;22.9;96.0
22676;DHT22;12521;43.310;21.876;2023-07-29T23:29:34;22.8;96.0
22676;DHT22;12521;43.310;21.876;2023-07-29T23:34:11;22.8;96.0
22676;DHT22;12521;43.310;21.876;2023-07-29T23:38:48;22.6;96.0
22676;DHT22;12521;43.310;21.876;2023-07-29T23:43:24;22.6;96.0
22676;DHT22;12521;43.310;21.876;2023-07-29T23:48:01;22.6;96.0
22676;DHT22;12521;43.310;21.876;2023-07-29T23:52:38;22.6;96.0
22676;DHT22;12521;43.310;21.876;2023-07-29T23:57:14;22.5;96.0
